createdAt,value
2022-08-22T00:02:31.109Z,20.23
2022-08-22T00:02:59.342Z,20.05
2022-08-22T00:07:31.139Z,20.36
2022-08-22T00:12:31.113Z,20.20
2022-08-22T00:17:31.229Z,20.28
2022-08-22T00:22:31.080Z,20.46
2022-08-22T00:27:31.162Z,20.38
2022-08-22T00:32:31.094Z,20.49
2022-08-22T00:37:31.139Z,20.39
2022-08-22T00:42:32.172Z,20.27
2022-08-22T00:47:31.182Z,20.36
2022-08-22T00:52:31.082Z,20.27
2022-08-22T00:57:31.141Z,20.35
2022-08-22T01:02:31.113Z,20.36
2022-08-22T01:07:38.086Z,20.18
2022-08-22T01:12:31.148Z,20.29
2022-08-22T01:22:31.188Z,20.21
2022-08-22T01:27:31.141Z,20.25
2022-08-22T01:32:31.154Z,20.22
2022-08-22T01:37:31.106Z,20.07
2022-08-22T01:42:31.177Z,20.25
2022-08-22T01:47:31.135Z,20.33
2022-08-22T01:52:31.189Z,20.08
2022-08-22T01:57:31.172Z,20.09
2022-08-22T02:02:31.310Z,20.14
2022-08-22T02:07:31.919Z,20.04
2022-08-22T02:12:31.166Z,19.83
2022-08-22T02:17:31.140Z,20.03
2022-08-22T02:22:31.172Z,20.02
2022-08-22T02:27:31.451Z,19.75
2022-08-22T02:32:31.214Z,19.88
2022-08-22T02:37:31.140Z,19.99
2022-08-22T02:42:31.184Z,20.23
2022-08-22T02:47:31.151Z,20.30
2022-08-22T02:52:31.248Z,20.40
2022-08-22T02:57:31.183Z,20.02
2022-08-22T03:02:31.311Z,20.01
2022-08-22T03:07:31.157Z,19.70
2022-08-22T03:12:31.236Z,19.97
2022-08-22T03:17:31.168Z,19.84
2022-08-22T03:22:31.200Z,19.79
2022-08-22T03:27:33.213Z,19.63
2022-08-22T03:32:31.207Z,19.60
2022-08-22T03:37:31.169Z,19.47
2022-08-22T03:42:31.219Z,19.38
2022-08-22T03:47:31.182Z,19.36
2022-08-22T03:52:31.233Z,19.33
2022-08-22T03:57:31.481Z,19.31
2022-08-22T04:02:43.492Z,19.35
2022-08-22T04:12:31.255Z,19.46
2022-08-22T04:17:31.255Z,19.47
2022-08-22T04:27:31.238Z,19.46
2022-08-22T04:32:31.208Z,19.52
2022-08-22T04:37:31.240Z,19.53
2022-08-22T04:42:33.101Z,19.59
2022-08-22T04:47:31.278Z,19.54
2022-08-22T04:52:31.207Z,19.71
2022-08-22T04:57:31.301Z,19.67
2022-08-22T05:02:31.224Z,19.79
2022-08-22T05:07:35.785Z,19.85
2022-08-22T05:12:31.775Z,19.96
2022-08-22T05:17:31.296Z,19.87
2022-08-22T05:22:31.276Z,20.02
2022-08-22T05:27:31.265Z,19.90
2022-08-22T05:32:31.233Z,19.98
2022-08-22T05:37:31.306Z,20.16
2022-08-22T05:42:31.294Z,20.20
2022-08-22T05:47:31.299Z,20.26
2022-08-22T05:52:31.234Z,20.32
2022-08-22T05:57:31.364Z,20.34
2022-08-22T06:02:31.243Z,20.41
2022-08-22T06:07:31.272Z,20.32
2022-08-22T06:17:31.290Z,20.52
2022-08-22T06:22:31.251Z,20.62
2022-08-22T06:27:31.469Z,20.72
2022-08-22T06:32:58.505Z,21.02
2022-08-22T06:37:31.307Z,21.21
2022-08-22T06:42:31.339Z,21.27
2022-08-22T06:47:31.311Z,21.36
2022-08-22T06:52:31.300Z,21.33
2022-08-22T06:57:31.344Z,21.31
2022-08-22T07:02:31.343Z,21.41
2022-08-22T07:07:31.311Z,21.60
2022-08-22T07:12:31.314Z,21.62
2022-08-22T07:17:31.423Z,21.68
2022-08-22T07:22:31.291Z,21.80
2022-08-22T07:32:31.344Z,21.75
2022-08-22T07:37:31.291Z,21.87
2022-08-22T07:42:31.326Z,21.91
2022-08-22T07:47:31.342Z,21.92
2022-08-22T07:52:31.369Z,21.77
2022-08-22T07:57:31.332Z,21.83
2022-08-22T08:02:31.377Z,21.88
2022-08-22T08:07:31.378Z,21.96
2022-08-22T08:12:31.370Z,22.29
2022-08-22T08:17:32.323Z,22.60
2022-08-22T08:22:31.382Z,22.98
2022-08-22T08:27:31.323Z,23.03
2022-08-22T08:32:31.394Z,23.06
2022-08-22T08:37:31.322Z,22.98
2022-08-22T08:42:31.382Z,23.13
2022-08-22T08:47:31.396Z,23.20
2022-08-22T08:52:31.408Z,23.12
2022-08-22T08:57:31.350Z,23.36
2022-08-22T09:02:33.072Z,24.52
2022-08-22T09:07:31.382Z,24.93
2022-08-22T09:12:31.403Z,23.90
2022-08-22T09:17:31.529Z,24.36
2022-08-22T09:22:50.215Z,25.85
2022-08-22T09:27:31.375Z,25.53
2022-08-22T09:32:31.503Z,24.97
2022-08-22T09:37:31.365Z,24.75
2022-08-22T09:42:31.557Z,24.81
2022-08-22T09:47:32.782Z,24.69
2022-08-22T09:52:33.024Z,24.33
2022-08-22T09:57:31.391Z,24.60
2022-08-22T10:02:31.407Z,24.33
2022-08-22T10:07:31.376Z,24.21
2022-08-22T10:12:35.994Z,24.17
2022-08-22T10:17:31.517Z,23.89
2022-08-22T10:22:31.446Z,23.86
2022-08-22T10:27:31.420Z,23.90
2022-08-22T10:32:31.409Z,24.05
2022-08-22T10:37:31.397Z,23.73
2022-08-22T10:42:35.276Z,23.74
2022-08-22T10:47:31.445Z,24.27
2022-08-22T10:52:31.419Z,24.82
2022-08-22T10:57:31.395Z,24.90
2022-08-22T11:02:31.454Z,25.04
2022-08-22T11:07:31.411Z,24.85
2022-08-22T11:12:34.849Z,24.69
2022-08-22T11:17:33.899Z,24.63
2022-08-22T11:22:31.450Z,24.61
2022-08-22T11:27:35.309Z,24.85
2022-08-22T11:32:31.484Z,24.98
2022-08-22T11:37:42.944Z,25.13
2022-08-22T11:42:31.457Z,25.10
2022-08-22T11:47:31.563Z,25.16
2022-08-22T11:52:31.482Z,25.08
2022-08-22T11:57:31.444Z,24.91
2022-08-22T12:02:31.558Z,24.89
2022-08-22T12:07:31.442Z,24.69
2022-08-22T12:12:31.471Z,24.82
2022-08-22T12:17:55.132Z,25.03
2022-08-22T12:22:31.502Z,24.98
2022-08-22T12:32:31.494Z,24.99
2022-08-22T12:37:31.453Z,25.02
2022-08-22T12:42:31.538Z,25.08
2022-08-22T12:47:32.206Z,25.14
2022-08-22T12:52:31.500Z,25.35
2022-08-22T12:57:31.490Z,25.37
2022-08-22T13:02:31.545Z,25.33
2022-08-22T13:07:31.469Z,25.10
2022-08-22T13:12:31.862Z,25.30
2022-08-22T13:17:31.539Z,25.44
2022-08-22T13:22:31.519Z,25.28
2022-08-22T13:27:31.486Z,25.44
2022-08-22T13:32:31.542Z,25.60
2022-08-22T13:37:31.501Z,25.41
2022-08-22T13:42:31.564Z,25.33
2022-08-22T13:47:31.945Z,25.39
2022-08-22T13:52:31.526Z,24.86
2022-08-22T13:57:31.515Z,24.70
2022-08-22T14:02:32.386Z,24.40
2022-08-22T14:07:31.511Z,24.70
2022-08-22T14:12:33.653Z,24.48
2022-08-22T14:17:31.559Z,24.36
2022-08-22T14:22:34.832Z,24.42
2022-08-22T14:27:31.508Z,24.66
2022-08-22T14:32:35.257Z,24.58
2022-08-22T14:42:31.547Z,24.39
2022-08-22T14:47:54.305Z,24.28
2022-08-22T14:52:31.617Z,24.24
2022-08-22T14:57:31.550Z,24.49
2022-08-22T15:02:31.619Z,24.36
2022-08-22T15:07:31.564Z,24.42
2022-08-22T15:12:31.562Z,24.70
2022-08-22T15:22:31.772Z,24.57
2022-08-22T15:27:31.583Z,24.46
2022-08-22T15:32:31.682Z,24.35
2022-08-22T15:37:32.559Z,24.11
2022-08-22T15:42:31.796Z,24.13
2022-08-22T15:47:34.669Z,24.07
2022-08-22T15:52:31.643Z,23.98
2022-08-22T15:57:31.578Z,23.84
2022-08-22T16:02:35.268Z,23.72
2022-08-22T16:07:31.698Z,23.84
2022-08-22T16:12:31.634Z,23.93
2022-08-22T16:17:31.623Z,23.83
2022-08-22T16:22:31.646Z,23.66
2022-08-22T16:27:31.618Z,23.53
2022-08-22T16:32:31.582Z,23.36
2022-08-22T16:37:31.655Z,23.29
2022-08-22T16:42:31.593Z,23.26
2022-08-22T16:47:31.634Z,23.53
2022-08-22T16:52:33.349Z,23.30
2022-08-22T16:57:31.644Z,23.34
2022-08-22T17:02:31.599Z,22.68
2022-08-22T17:07:31.658Z,22.59
2022-08-22T17:12:31.608Z,22.28
2022-08-22T17:17:31.641Z,22.04
2022-08-22T17:22:31.669Z,21.98
2022-08-22T17:27:31.658Z,21.74
2022-08-22T17:32:31.600Z,21.37
2022-08-22T17:37:31.680Z,21.34
2022-08-22T17:42:31.670Z,21.35
2022-08-22T17:47:31.664Z,21.08
2022-08-22T17:52:31.955Z,21.01
2022-08-22T17:57:31.707Z,20.90
2022-08-22T18:02:31.680Z,21.03
2022-08-22T18:07:31.674Z,21.04
2022-08-22T18:12:34.339Z,20.99
2022-08-22T18:17:31.787Z,20.94
2022-08-22T18:22:31.771Z,20.85
2022-08-22T18:27:34.712Z,20.81
2022-08-22T18:32:31.706Z,20.70
2022-08-22T18:37:32.832Z,20.64
2022-08-22T18:42:31.758Z,20.78
2022-08-22T18:47:31.696Z,20.81
2022-08-22T18:52:31.882Z,20.59
2022-08-22T18:57:31.910Z,20.80
2022-08-22T19:02:31.812Z,20.77
2022-08-22T19:07:31.893Z,20.66
2022-08-22T19:12:31.861Z,20.59
2022-08-22T19:17:31.743Z,20.87
2022-08-22T19:22:31.871Z,20.79
2022-08-22T19:27:31.923Z,20.60
2022-08-22T19:32:31.875Z,20.40
2022-08-22T19:37:33.934Z,20.59
2022-08-22T19:42:31.679Z,20.39
2022-08-22T19:47:31.915Z,20.72
2022-08-22T19:52:31.900Z,20.69
2022-08-22T19:57:31.920Z,20.29
2022-08-22T20:02:31.965Z,20.44
2022-08-22T20:07:31.884Z,20.52
2022-08-22T20:12:31.818Z,20.68
2022-08-22T20:17:31.797Z,20.71
2022-08-22T20:22:31.934Z,20.78
2022-08-22T20:27:31.801Z,20.65
2022-08-22T20:32:31.899Z,20.49
2022-08-22T20:37:45.431Z,20.68
2022-08-22T20:42:31.726Z,20.69
2022-08-22T20:47:39.604Z,20.73
2022-08-22T20:52:31.768Z,20.67
2022-08-22T20:57:31.936Z,20.64
2022-08-22T21:02:31.723Z,20.67
2022-08-22T21:07:32.009Z,20.56
2022-08-22T21:12:31.726Z,20.50
2022-08-22T21:17:33.671Z,20.41
2022-08-22T21:22:31.757Z,20.46
2022-08-22T21:27:31.778Z,20.45
2022-08-22T21:32:31.753Z,20.58
2022-08-22T21:37:31.794Z,20.36
2022-08-22T21:42:31.761Z,20.54
2022-08-22T21:47:31.872Z,20.21
2022-08-22T21:52:31.806Z,20.35
2022-08-22T21:57:31.831Z,20.27
2022-08-22T22:02:36.377Z,20.29
2022-08-22T22:07:31.810Z,20.20
2022-08-22T22:12:31.767Z,20.36
2022-08-22T22:17:31.817Z,20.39
2022-08-22T22:27:31.797Z,20.33
2022-08-22T22:32:31.774Z,20.39
2022-08-22T22:37:31.816Z,20.32
2022-08-22T22:42:31.804Z,20.30
2022-08-22T22:47:31.836Z,20.21
2022-08-22T22:52:31.769Z,20.25
2022-08-22T22:57:31.874Z,20.27
2022-08-22T23:02:31.783Z,20.32
2022-08-22T23:07:34.011Z,20.29
2022-08-22T23:12:31.827Z,20.28
2022-08-22T23:17:31.819Z,20.22
2022-08-22T23:22:31.781Z,20.14
2022-08-22T23:27:31.844Z,20.12
2022-08-22T23:32:31.799Z,20.11
2022-08-22T23:37:31.835Z,20.12
2022-08-22T23:47:31.963Z,20.04
2022-08-22T23:57:31.887Z,20.10
